Share

Almaty, Kazakhstan

12:01 PM ALMT on April 24, 2014 (GMT +0600)
Almaty (UAAA) Elev 2231 ft | 43.35 °N, 77.04 °E | Change Station

Current weather conditions updated 31 minutes ago

Clear
Clear
57 °F
Feels Like 57 °F
N
4
Wind Variable Wind from ESE
Sunrise 5:56 AM
Sunset 7:45 PM
Moon Waning Crescent

Today is forecast to be Much Warmer than yesterday.

Pressure 29.98 in
Visibility 6.2 miles
Clouds
Dew Point 28 °F
Humidity 33%
Rainfall 0.00 in
Snow Depth Not available.
UV Not available.
Pollen Not available.
Air Quality Not available.
Flu Activity Not available.
METAR UAAA 240530Z 11002MPS 9999 NSC 14/M02 Q1015 88CLRD65 NOSIG

More Conditions Fewer Conditions

Pressure 29.98 in
Visibility 6.2 miles
Clouds
Dew Point 28 °F
Humidity 33%
Rainfall 0.00 in
Snow Depth Not available.
UV Not available.
Pollen Not available.
Air Quality Not available.
Flu Activity Not available.
METAR UAAA 240530Z 11002MPS 9999 NSC 14/M02 Q1015 88CLRD65 NOSIG

More Conditions Fewer Conditions

10-Day Weather Forecast

Almanac

Astronomy

Apr. 24, 2014 Rise Set
Actual Time 5:56 AM ALMT 7:45 PM ALMT
Civil Twilight 5:26 AM ALMT 8:15 PM ALMT
Nautical Twilight 4:49 AM ALMT 8:52 PM ALMT
Astronomical Twilight 4:09 AM ALMT 9:33 PM ALMT
Moon 2:59 AM ALMT 2:21 PM ALMT
Length of Visible Light 14h 49m
Length of Day
13h 48m
Tomorrow will be 2m 41s longer.
Waning Crescent, 29% of the Moon is Illuminated
Today
Waning Crescent
Apr 29
New
May 6
First Quarter
May 14
Full
May 21
Last Quarter

Yesterday's Extremes

Country Highs Country Lows

Community

  • Stacked
    Stacked
  • clouds approaching Red Sox Nation
    clouds approaching Red Sox Nation
  • Balance
    Balance
  • Nestled In
    Nestled In
  • Stunning Sunrise
    Stunning Sunrise

WunderPhotos

Upload Photos

1,704,566 photos uploaded!

WunderBlogs® & News

Nearby

Snow Depth

Not available.

Coastal Water Temperatures

Place Temperature
No Stations Reporting

Earthquake Activity

City Distance Mag. Time & Date
No recent earthquake activity has been reported nearby.
Minimum magnitude displayed is 2.5.

Nearby Weather Stations

There are no personal weather stations in this area.

What do you think?

We're not finished. Please let us know what you like, what you don't like, and what you are still missing.